createdAt,value
2022-10-06T00:00:29.151Z,1013.07
2022-10-06T00:01:29.232Z,1013.11
2022-10-06T00:02:29.200Z,1013.11
2022-10-06T00:03:29.101Z,1013.17
2022-10-06T00:04:29.103Z,1013.14
2022-10-06T00:05:29.070Z,1013.18
2022-10-06T00:06:29.048Z,1013.14
2022-10-06T00:07:29.036Z,1013.17
2022-10-06T00:08:29.465Z,1013.20
2022-10-06T00:09:28.998Z,1013.17
2022-10-06T00:10:28.980Z,1013.21
2022-10-06T00:11:28.965Z,1013.24
2022-10-06T00:12:28.947Z,1013.26
2022-10-06T00:13:28.941Z,1013.27
2022-10-06T00:14:28.909Z,1013.26
2022-10-06T00:15:28.954Z,1013.31
2022-10-06T00:16:28.879Z,1013.37
2022-10-06T00:17:28.860Z,1013.41
2022-10-06T00:18:29.192Z,1013.48
2022-10-06T00:19:28.831Z,1013.44
2022-10-06T00:20:28.831Z,1013.50
2022-10-06T00:21:28.791Z,1013.56
2022-10-06T00:22:28.777Z,1013.52
2022-10-06T00:23:28.763Z,1013.59
2022-10-06T00:24:28.743Z,1013.56
2022-10-06T00:25:28.729Z,1013.61
2022-10-06T00:26:28.707Z,1013.57
2022-10-06T00:27:28.690Z,1013.57
2022-10-06T00:28:29.056Z,1013.62
2022-10-06T00:29:28.657Z,1013.62
2022-10-06T00:30:28.634Z,1013.61
2022-10-06T00:31:28.691Z,1013.65
2022-10-06T00:32:28.604Z,1013.71
2022-10-06T00:33:28.585Z,1013.71
2022-10-06T00:34:28.569Z,1013.74
2022-10-06T00:35:28.553Z,1013.78
2022-10-06T00:36:28.551Z,1013.79
2022-10-06T00:37:28.526Z,1013.83
2022-10-06T00:38:28.846Z,1013.88
2022-10-06T00:39:28.498Z,1013.88
2022-10-06T00:40:28.462Z,1013.85
2022-10-06T00:41:28.450Z,1013.93
2022-10-06T00:42:28.433Z,1013.90
2022-10-06T00:43:28.414Z,1013.89
2022-10-06T00:44:28.396Z,1013.90
2022-10-06T00:45:28.378Z,1013.94
2022-10-06T00:46:28.406Z,1013.92
2022-10-06T00:47:28.345Z,1013.93
2022-10-06T00:48:28.606Z,1013.92
2022-10-06T00:49:28.310Z,1013.98
2022-10-06T00:50:28.294Z,1014.04
2022-10-06T00:51:28.276Z,1014.04
2022-10-06T00:52:28.282Z,1014.03
2022-10-06T00:53:28.239Z,1014.07
2022-10-06T00:54:28.224Z,1014.10
2022-10-06T00:55:28.210Z,1014.11
2022-10-06T00:56:28.188Z,1014.14
2022-10-06T00:57:28.168Z,1014.13
2022-10-06T00:58:28.430Z,1014.11
2022-10-06T00:59:28.135Z,1014.13
2022-10-06T01:00:28.120Z,1014.13
2022-10-06T01:01:28.184Z,1014.11
2022-10-06T01:02:28.114Z,1014.09
2022-10-06T01:03:28.065Z,1014.17
2022-10-06T01:04:28.048Z,1014.14
2022-10-06T01:05:28.039Z,1014.17
2022-10-06T01:06:28.015Z,1014.18
2022-10-06T01:07:27.996Z,1014.17
2022-10-06T01:08:28.470Z,1014.22
2022-10-06T01:09:27.963Z,1014.19
2022-10-06T01:10:27.943Z,1014.22
2022-10-06T01:11:27.931Z,1014.22
2022-10-06T01:12:27.907Z,1014.20
2022-10-06T01:13:27.891Z,1014.23
2022-10-06T01:14:27.874Z,1014.22
2022-10-06T01:15:27.854Z,1014.26
2022-10-06T01:16:27.837Z,1014.32
2022-10-06T01:17:27.825Z,1014.31
2022-10-06T01:18:28.127Z,1014.29
2022-10-06T01:19:27.784Z,1014.27
2022-10-06T01:20:27.766Z,1014.26
2022-10-06T01:21:27.749Z,1014.26
2022-10-06T01:22:27.733Z,1014.29
2022-10-06T01:23:27.712Z,1014.33
2022-10-06T01:24:27.716Z,1014.32
2022-10-06T01:25:27.680Z,1014.36
2022-10-06T01:26:27.660Z,1014.41
2022-10-06T01:27:27.648Z,1014.37
2022-10-06T01:28:28.067Z,1014.40
2022-10-06T01:29:27.607Z,1014.46
2022-10-06T01:30:27.588Z,1014.43
2022-10-06T01:31:27.639Z,1014.42
2022-10-06T01:32:27.552Z,1014.45
2022-10-06T01:33:27.536Z,1014.45
2022-10-06T01:34:27.520Z,1014.48
2022-10-06T01:35:27.498Z,1014.45
2022-10-06T01:36:27.480Z,1014.51
2022-10-06T01:37:27.465Z,1014.46
2022-10-06T01:38:27.822Z,1014.49
2022-10-06T01:39:27.430Z,1014.57
2022-10-06T01:40:27.430Z,1014.63
2022-10-06T01:41:27.394Z,1014.62
2022-10-06T01:42:27.378Z,1014.63
2022-10-06T01:43:27.353Z,1014.62
2022-10-06T01:44:27.335Z,1014.56
2022-10-06T01:45:27.318Z,1014.59
2022-10-06T01:46:27.373Z,1014.60
2022-10-06T01:47:27.288Z,1014.55
2022-10-06T01:48:27.951Z,1014.68
2022-10-06T01:49:27.246Z,1014.64
2022-10-06T01:50:27.228Z,1014.63
2022-10-06T01:51:27.209Z,1014.72
2022-10-06T01:52:27.189Z,1014.68
2022-10-06T01:53:27.183Z,1014.74
2022-10-06T01:54:27.154Z,1014.67
2022-10-06T01:55:27.139Z,1014.70
2022-10-06T01:56:27.317Z,1014.75
2022-10-06T01:57:27.101Z,1014.78
2022-10-06T01:58:27.500Z,1014.81
2022-10-06T01:59:27.062Z,1014.84
2022-10-06T02:00:27.051Z,1014.87
2022-10-06T02:01:27.054Z,1014.85
2022-10-06T02:02:27.013Z,1014.81
2022-10-06T02:03:26.995Z,1014.87
2022-10-06T02:04:27.023Z,1014.93
2022-10-06T02:05:26.953Z,1014.93
2022-10-06T02:06:27.040Z,1015.00
2022-10-06T02:07:26.916Z,1014.97
2022-10-06T02:08:27.404Z,1014.98
2022-10-06T02:09:26.891Z,1014.95
2022-10-06T02:10:26.862Z,1015.02
2022-10-06T02:11:26.844Z,1014.98
2022-10-06T02:12:26.849Z,1015.06
2022-10-06T02:13:26.815Z,1015.01
2022-10-06T02:14:26.812Z,1015.05
2022-10-06T02:15:26.773Z,1015.04
2022-10-06T02:16:26.821Z,1015.05
2022-10-06T02:17:26.734Z,1015.06
2022-10-06T02:18:27.387Z,1015.10
2022-10-06T02:19:26.698Z,1015.14
2022-10-06T02:20:26.682Z,1015.16
2022-10-06T02:21:26.663Z,1015.14
2022-10-06T02:22:26.642Z,1015.13
2022-10-06T02:23:26.626Z,1015.18
2022-10-06T02:24:26.605Z,1015.26
2022-10-06T02:25:26.587Z,1015.26
2022-10-06T02:26:26.569Z,1015.27
2022-10-06T02:27:26.550Z,1015.26
2022-10-06T02:28:27.024Z,1015.24
2022-10-06T02:29:26.518Z,1015.27
2022-10-06T02:30:26.499Z,1015.32
2022-10-06T02:31:26.528Z,1015.38
2022-10-06T02:32:26.462Z,1015.41
2022-10-06T02:33:26.442Z,1015.42
2022-10-06T02:34:26.424Z,1015.41
2022-10-06T02:35:26.408Z,1015.43
2022-10-06T02:36:26.383Z,1015.44
2022-10-06T02:37:26.372Z,1015.48
2022-10-06T02:38:26.813Z,1015.49
2022-10-06T02:39:26.331Z,1015.51
2022-10-06T02:40:26.309Z,1015.57
2022-10-06T02:41:26.297Z,1015.54
2022-10-06T02:42:26.274Z,1015.54
2022-10-06T02:43:26.258Z,1015.56
2022-10-06T02:44:26.259Z,1015.60
2022-10-06T02:45:26.227Z,1015.65
2022-10-06T02:46:26.268Z,1015.71
2022-10-06T02:47:26.185Z,1015.68
2022-10-06T02:48:26.679Z,1015.71
2022-10-06T02:49:26.150Z,1015.70
2022-10-06T02:50:26.129Z,1015.73
2022-10-06T02:51:26.110Z,1015.74
2022-10-06T02:52:26.103Z,1015.74
2022-10-06T02:53:26.077Z,1015.77
2022-10-06T02:54:26.064Z,1015.74
2022-10-06T02:55:26.037Z,1015.78
2022-10-06T02:56:26.019Z,1015.75
2022-10-06T02:57:26.007Z,1015.86
2022-10-06T02:58:26.494Z,1015.87
2022-10-06T02:59:25.964Z,1015.88
2022-10-06T03:00:26.100Z,1015.89
2022-10-06T03:01:26.043Z,1015.87
2022-10-06T03:02:26.033Z,1015.88
2022-10-06T03:03:25.888Z,1015.86
2022-10-06T03:04:25.876Z,1015.91
2022-10-06T03:05:25.859Z,1015.92
2022-10-06T03:06:25.835Z,1015.91
2022-10-06T03:07:25.820Z,1015.92
2022-10-06T03:08:26.060Z,1015.92
2022-10-06T03:09:25.785Z,1015.98
2022-10-06T03:10:25.760Z,1016.00
2022-10-06T03:11:25.742Z,1016.04
2022-10-06T03:12:25.725Z,1016.09
2022-10-06T03:13:25.706Z,1016.03
2022-10-06T03:14:25.688Z,1016.06
2022-10-06T03:15:25.667Z,1016.12
2022-10-06T03:16:25.889Z,1016.11
2022-10-06T03:17:25.632Z,1016.13
2022-10-06T03:18:25.935Z,1016.10
2022-10-06T03:19:25.597Z,1016.14
2022-10-06T03:20:25.584Z,1016.19
2022-10-06T03:21:25.563Z,1016.18
2022-10-06T03:22:25.542Z,1016.28
2022-10-06T03:23:25.520Z,1016.28
2022-10-06T03:24:25.505Z,1016.25
2022-10-06T03:25:25.490Z,1016.28
2022-10-06T03:26:25.478Z,1016.35
2022-10-06T03:27:25.454Z,1016.32
2022-10-06T03:28:25.882Z,1016.31
2022-10-06T03:29:25.414Z,1016.32
2022-10-06T03:30:25.398Z,1016.34
2022-10-06T03:31:25.489Z,1016.32
2022-10-06T03:32:25.380Z,1016.37
2022-10-06T03:33:25.340Z,1016.37
2022-10-06T03:34:25.322Z,1016.36
2022-10-06T03:35:25.304Z,1016.42
2022-10-06T03:36:25.286Z,1016.44
2022-10-06T03:37:25.265Z,1016.40
2022-10-06T03:38:25.692Z,1016.46
2022-10-06T03:39:25.235Z,1016.52
2022-10-06T03:40:25.218Z,1016.58
2022-10-06T03:41:25.196Z,1016.58
2022-10-06T03:42:25.177Z,1016.58
2022-10-06T03:43:25.157Z,1016.64
2022-10-06T03:44:25.137Z,1016.63
2022-10-06T03:45:25.126Z,1016.64
2022-10-06T03:46:25.127Z,1016.63
2022-10-06T03:47:25.082Z,1016.61
2022-10-06T03:48:25.088Z,1016.63
2022-10-06T03:49:25.047Z,1016.66
2022-10-06T03:50:25.029Z,1016.69
2022-10-06T03:51:25.014Z,1016.72
2022-10-06T03:52:26.122Z,1016.75
2022-10-06T03:53:24.975Z,1016.72
2022-10-06T03:54:24.982Z,1016.76
2022-10-06T03:55:24.938Z,1016.78
2022-10-06T03:56:24.919Z,1016.76
2022-10-06T03:57:24.904Z,1016.80
2022-10-06T03:58:24.888Z,1016.73
2022-10-06T03:59:24.866Z,1016.76
2022-10-06T04:00:24.857Z,1016.75
2022-10-06T04:01:26.407Z,1016.79
2022-10-06T04:02:24.896Z,1016.81
2022-10-06T04:03:24.795Z,1016.79
2022-10-06T04:04:24.796Z,1016.87
2022-10-06T04:05:24.757Z,1016.90
2022-10-06T04:06:24.736Z,1016.91
2022-10-06T04:07:24.720Z,1016.99
2022-10-06T04:08:24.703Z,1017.00
2022-10-06T04:09:24.682Z,1016.98
2022-10-06T04:10:24.669Z,1017.02
2022-10-06T04:11:24.645Z,1017.01
2022-10-06T04:12:24.624Z,1016.98
2022-10-06T04:13:24.607Z,1017.03
2022-10-06T04:14:24.594Z,1017.03
2022-10-06T04:15:24.577Z,1017.06
2022-10-06T04:16:24.688Z,1017.03
2022-10-06T04:17:24.540Z,1017.06
2022-10-06T04:18:24.516Z,1017.06
2022-10-06T04:19:24.498Z,1017.10
2022-10-06T04:20:24.516Z,1017.13
2022-10-06T04:21:24.461Z,1017.19
2022-10-06T04:22:24.448Z,1017.17
2022-10-06T04:23:24.427Z,1017.25
2022-10-06T04:24:24.414Z,1017.24
2022-10-06T04:25:24.393Z,1017.26
2022-10-06T04:26:24.368Z,1017.25
2022-10-06T04:27:24.354Z,1017.29
2022-10-06T04:28:24.393Z,1017.31
2022-10-06T04:29:24.312Z,1017.37
2022-10-06T04:30:24.294Z,1017.33
2022-10-06T04:31:24.308Z,1017.35
2022-10-06T04:32:24.256Z,1017.33
2022-10-06T04:33:24.240Z,1017.38
2022-10-06T04:34:24.220Z,1017.36
2022-10-06T04:35:24.202Z,1017.41
2022-10-06T04:36:24.257Z,1017.42
2022-10-06T04:37:24.170Z,1017.44
2022-10-06T04:38:24.156Z,1017.48
2022-10-06T04:39:24.127Z,1017.46
2022-10-06T04:40:24.109Z,1017.49
2022-10-06T04:41:24.091Z,1017.53
2022-10-06T04:42:24.077Z,1017.53
2022-10-06T04:43:24.052Z,1017.53
2022-10-06T04:44:24.039Z,1017.59
2022-10-06T04:45:24.017Z,1017.63
2022-10-06T04:46:42.023Z,1017.64
2022-10-06T04:47:23.978Z,1017.68
2022-10-06T04:48:23.969Z,1017.66
2022-10-06T04:49:23.945Z,1017.68
2022-10-06T04:50:23.925Z,1017.68
2022-10-06T04:51:23.907Z,1017.67
2022-10-06T04:52:23.907Z,1017.66
2022-10-06T04:53:23.874Z,1017.67
2022-10-06T04:54:23.849Z,1017.70
2022-10-06T04:55:23.831Z,1017.76
2022-10-06T04:56:23.814Z,1017.79
2022-10-06T04:57:23.792Z,1017.81
2022-10-06T04:58:23.783Z,1017.78
2022-10-06T04:59:23.760Z,1017.84
2022-10-06T05:00:23.739Z,1017.86
2022-10-06T05:01:23.770Z,1017.88
2022-10-06T05:02:23.731Z,1017.91
2022-10-06T05:03:23.679Z,1017.97
2022-10-06T05:04:23.667Z,1017.90
2022-10-06T05:05:23.641Z,1017.91
2022-10-06T05:06:23.632Z,1017.96
2022-10-06T05:07:23.658Z,1017.93
2022-10-06T05:08:23.605Z,1017.98
2022-10-06T05:09:23.574Z,1017.99
2022-10-06T05:10:23.551Z,1017.98
2022-10-06T05:11:25.882Z,1018.07
2022-10-06T05:12:23.514Z,1018.10
2022-10-06T05:13:23.492Z,1018.16
2022-10-06T05:14:23.477Z,1018.16
2022-10-06T05:15:23.469Z,1018.17
2022-10-06T05:16:23.531Z,1018.21
2022-10-06T05:17:23.420Z,1018.23
2022-10-06T05:18:23.398Z,1018.24
2022-10-06T05:19:23.376Z,1018.25
2022-10-06T05:20:23.371Z,1018.30
2022-10-06T05:21:23.343Z,1018.30
2022-10-06T05:22:23.325Z,1018.26
2022-10-06T05:23:23.300Z,1018.29
2022-10-06T05:24:23.305Z,1018.31
2022-10-06T05:25:23.267Z,1018.34
2022-10-06T05:26:23.248Z,1018.37
2022-10-06T05:27:23.227Z,1018.39
2022-10-06T05:28:23.266Z,1018.44
2022-10-06T05:29:23.188Z,1018.42
2022-10-06T05:30:23.171Z,1018.45
2022-10-06T05:31:23.276Z,1018.50
2022-10-06T05:32:23.134Z,1018.50
2022-10-06T05:33:23.111Z,1018.48
2022-10-06T05:34:23.094Z,1018.52
2022-10-06T05:35:23.076Z,1018.50
2022-10-06T05:36:23.055Z,1018.53
2022-10-06T05:37:23.040Z,1018.56
2022-10-06T05:38:23.018Z,1018.55
2022-10-06T05:39:22.996Z,1018.55
2022-10-06T05:40:23.000Z,1018.58
2022-10-06T05:41:22.965Z,1018.59
2022-10-06T05:42:26.237Z,1018.61
2022-10-06T05:43:22.923Z,1018.65
2022-10-06T05:44:22.907Z,1018.61
2022-10-06T05:45:22.884Z,1018.68
2022-10-06T05:46:22.955Z,1018.68
2022-10-06T05:47:22.846Z,1018.68
2022-10-06T05:48:22.830Z,1018.72
2022-10-06T05:49:22.808Z,1018.72
2022-10-06T05:50:22.789Z,1018.75
2022-10-06T05:51:25.629Z,1018.78
2022-10-06T05:52:22.761Z,1018.76
2022-10-06T05:53:22.735Z,1018.81
2022-10-06T05:54:22.717Z,1018.82
2022-10-06T05:55:22.694Z,1018.86
2022-10-06T05:56:22.700Z,1018.86
2022-10-06T05:57:22.660Z,1018.90
2022-10-06T05:58:22.645Z,1018.88
2022-10-06T05:59:22.622Z,1018.92
2022-10-06T06:00:22.604Z,1018.95
2022-10-06T06:01:22.618Z,1018.97
2022-10-06T06:02:22.632Z,1018.99
2022-10-06T06:03:22.548Z,1019.04
2022-10-06T06:04:22.530Z,1019.00
2022-10-06T06:05:22.508Z,1019.01
2022-10-06T06:06:22.490Z,1019.02
2022-10-06T06:07:22.468Z,1019.02
2022-10-06T06:08:22.454Z,1019.03
2022-10-06T06:09:22.431Z,1019.04
2022-10-06T06:10:22.418Z,1019.12
2022-10-06T06:11:22.397Z,1019.12
2022-10-06T06:12:22.395Z,1019.08
2022-10-06T06:13:22.353Z,1019.11
2022-10-06T06:14:22.337Z,1019.13
2022-10-06T06:15:22.319Z,1019.12
2022-10-06T06:16:22.438Z,1019.11
2022-10-06T06:17:22.277Z,1019.12
2022-10-06T06:18:22.264Z,1019.13
2022-10-06T06:19:24.894Z,1019.14
2022-10-06T06:20:22.241Z,1019.16
2022-10-06T06:21:22.207Z,1019.23
2022-10-06T06:22:22.185Z,1019.23
2022-10-06T06:23:22.168Z,1019.24
2022-10-06T06:24:22.153Z,1019.32
2022-10-06T06:25:22.133Z,1019.37
2022-10-06T06:26:22.118Z,1019.38
2022-10-06T06:27:22.098Z,1019.38
2022-10-06T06:28:22.154Z,1019.47
2022-10-06T06:29:22.056Z,1019.47
2022-10-06T06:30:22.048Z,1019.49
2022-10-06T06:31:22.178Z,1019.49
2022-10-06T06:32:22.008Z,1019.53
2022-10-06T06:33:22.004Z,1019.53
2022-10-06T06:34:21.976Z,1019.59
2022-10-06T06:35:21.957Z,1019.57
2022-10-06T06:36:21.942Z,1019.64
2022-10-06T06:37:21.922Z,1019.66
2022-10-06T06:38:21.911Z,1019.66
2022-10-06T06:39:21.904Z,1019.76
2022-10-06T06:40:21.881Z,1019.85
2022-10-06T06:41:21.861Z,1019.87
2022-10-06T06:42:21.850Z,1019.99
2022-10-06T06:43:21.829Z,1020.01
2022-10-06T06:44:21.844Z,1020.00
2022-10-06T06:45:21.804Z,1020.05
2022-10-06T06:46:21.965Z,1020.01
2022-10-06T06:47:24.391Z,1020.10
2022-10-06T06:48:21.764Z,1020.13
2022-10-06T06:49:21.749Z,1020.11
2022-10-06T06:50:21.742Z,1020.16
2022-10-06T06:51:21.726Z,1020.23
2022-10-06T06:52:21.716Z,1020.27
2022-10-06T06:53:21.700Z,1020.32
2022-10-06T06:54:21.688Z,1020.37
2022-10-06T06:55:21.671Z,1020.43
2022-10-06T06:56:21.660Z,1020.47
2022-10-06T06:57:21.651Z,1020.54
2022-10-06T06:58:21.643Z,1020.53
2022-10-06T06:59:21.630Z,1020.52
2022-10-06T07:00:21.672Z,1020.57
2022-10-06T07:01:21.659Z,1020.59
2022-10-06T07:02:21.665Z,1020.65
2022-10-06T07:03:45.222Z,1020.63
2022-10-06T07:04:21.580Z,1020.65
2022-10-06T07:05:21.572Z,1020.59
2022-10-06T07:06:23.564Z,1020.67
2022-10-06T07:07:21.562Z,1020.68
2022-10-06T07:08:21.539Z,1020.73
2022-10-06T07:09:21.537Z,1020.73
2022-10-06T07:10:21.526Z,1020.79
2022-10-06T07:11:21.517Z,1020.76
2022-10-06T07:12:21.507Z,1020.88
2022-10-06T07:13:21.501Z,1020.86
2022-10-06T07:14:21.496Z,1020.86
2022-10-06T07:15:21.482Z,1020.91
2022-10-06T07:16:21.531Z,1020.92
2022-10-06T07:17:21.482Z,1020.97
2022-10-06T07:18:21.468Z,1020.95
2022-10-06T07:19:24.783Z,1020.97
2022-10-06T07:20:21.457Z,1021.01
2022-10-06T07:21:21.443Z,1021.04
2022-10-06T07:22:21.436Z,1021.05
2022-10-06T07:23:21.435Z,1021.06
2022-10-06T07:24:21.427Z,1021.04
2022-10-06T07:25:25.370Z,1021.12
2022-10-06T07:26:21.419Z,1021.08
2022-10-06T07:27:21.411Z,1021.14
2022-10-06T07:28:21.498Z,1021.13
2022-10-06T07:29:21.401Z,1021.24
2022-10-06T07:30:21.399Z,1021.25
2022-10-06T07:31:21.439Z,1021.28
2022-10-06T07:32:21.415Z,1021.26
2022-10-06T07:33:21.385Z,1021.30
2022-10-06T07:34:21.379Z,1021.34
2022-10-06T07:35:21.375Z,1021.31
2022-10-06T07:36:21.372Z,1021.34
2022-10-06T07:37:21.370Z,1021.42
2022-10-06T07:38:21.372Z,1021.39
2022-10-06T07:39:21.363Z,1021.40
2022-10-06T07:40:21.363Z,1021.40
2022-10-06T07:41:21.354Z,1021.45
2022-10-06T07:42:21.353Z,1021.49
2022-10-06T07:43:21.349Z,1021.60
2022-10-06T07:44:21.343Z,1021.60
2022-10-06T07:45:21.347Z,1021.57
2022-10-06T07:46:21.361Z,1021.66
2022-10-06T07:47:21.342Z,1021.68
2022-10-06T07:48:21.356Z,1021.69
2022-10-06T07:49:21.341Z,1021.69
2022-10-06T07:50:21.330Z,1021.67
2022-10-06T07:51:21.328Z,1021.69
2022-10-06T07:52:21.328Z,1021.69
2022-10-06T07:53:21.324Z,1021.73
2022-10-06T07:54:26.519Z,1021.70
2022-10-06T07:55:21.320Z,1021.78
2022-10-06T07:56:21.364Z,1021.74
2022-10-06T07:57:21.317Z,1021.78
2022-10-06T07:58:21.317Z,1021.82
2022-10-06T07:59:21.311Z,1021.78
2022-10-06T08:00:21.366Z,1021.85
2022-10-06T08:01:21.401Z,1021.83
2022-10-06T08:02:21.350Z,1021.85
2022-10-06T08:03:21.386Z,1021.85
2022-10-06T08:04:21.327Z,1021.92
2022-10-06T08:05:21.310Z,1021.91
2022-10-06T08:06:21.304Z,1021.95
2022-10-06T08:07:21.308Z,1021.99
2022-10-06T08:08:21.298Z,1021.98
2022-10-06T08:09:21.298Z,1022.02
2022-10-06T08:10:21.313Z,1021.99
2022-10-06T08:11:21.295Z,1022.05
2022-10-06T08:12:21.304Z,1022.03
2022-10-06T08:13:21.293Z,1022.11
2022-10-06T08:14:21.296Z,1022.12
2022-10-06T08:15:21.295Z,1022.12
2022-10-06T08:16:21.431Z,1022.15
2022-10-06T08:17:21.311Z,1022.14
2022-10-06T08:18:44.507Z,1022.16
2022-10-06T08:19:21.292Z,1022.18
2022-10-06T08:20:21.452Z,1022.24
2022-10-06T08:21:21.292Z,1022.30
2022-10-06T08:22:21.290Z,1022.40
2022-10-06T08:23:21.291Z,1022.25
2022-10-06T08:24:21.289Z,1022.32
2022-10-06T08:25:21.289Z,1022.38
2022-10-06T08:26:21.288Z,1022.34
2022-10-06T08:27:21.289Z,1022.31
2022-10-06T08:28:21.332Z,1022.33
2022-10-06T08:29:21.291Z,1022.37
2022-10-06T08:30:21.318Z,1022.45
2022-10-06T08:31:21.519Z,1022.44
2022-10-06T08:32:21.283Z,1022.48
2022-10-06T08:33:21.700Z,1022.47
2022-10-06T08:34:21.282Z,1022.50
2022-10-06T08:35:21.283Z,1022.50
2022-10-06T08:36:21.298Z,1022.54
2022-10-06T08:37:21.285Z,1022.57
2022-10-06T08:38:21.288Z,1022.58
2022-10-06T08:39:21.282Z,1022.67
2022-10-06T08:40:21.279Z,1022.68
2022-10-06T08:41:21.279Z,1022.73
2022-10-06T08:42:21.279Z,1022.66
2022-10-06T08:43:21.279Z,1022.68
2022-10-06T08:44:21.278Z,1022.73
2022-10-06T08:45:21.279Z,1022.76
2022-10-06T08:46:24.594Z,1022.76
2022-10-06T08:47:21.278Z,1022.61
2022-10-06T08:48:21.280Z,1022.69
2022-10-06T08:49:21.274Z,1022.71
2022-10-06T08:50:21.281Z,1022.74
2022-10-06T08:51:21.272Z,1022.78
2022-10-06T08:52:21.291Z,1022.81
2022-10-06T08:53:21.271Z,1022.84
2022-10-06T08:54:21.268Z,1022.83
2022-10-06T08:55:21.270Z,1022.79
2022-10-06T08:56:21.270Z,1022.82
2022-10-06T08:57:21.266Z,1022.85
2022-10-06T08:58:21.268Z,1022.86
2022-10-06T08:59:21.267Z,1022.83
2022-10-06T09:00:22.346Z,1022.78
2022-10-06T09:01:21.370Z,1022.76
2022-10-06T09:02:21.340Z,1022.05
2022-10-06T09:03:21.259Z,1022.98
2022-10-06T09:04:21.254Z,1022.95
2022-10-06T09:05:21.257Z,1022.88
2022-10-06T09:06:21.259Z,1022.91
2022-10-06T09:07:21.256Z,1022.95
2022-10-06T09:08:21.269Z,1022.99
2022-10-06T09:09:21.262Z,1023.02
2022-10-06T09:10:21.249Z,1023.02
2022-10-06T09:11:21.243Z,1023.03
2022-10-06T09:12:21.242Z,1023.07
2022-10-06T09:13:22.212Z,1023.00
2022-10-06T09:14:21.241Z,1022.92
2022-10-06T09:15:21.233Z,1023.11
2022-10-06T09:16:21.304Z,1022.69
2022-10-06T09:17:21.228Z,1022.97
2022-10-06T09:18:21.248Z,1023.02
2022-10-06T09:19:21.222Z,1023.08
2022-10-06T09:20:21.221Z,1023.06
2022-10-06T09:21:21.218Z,1022.92
2022-10-06T09:22:21.259Z,1022.94
2022-10-06T09:23:21.218Z,1023.02
2022-10-06T09:24:21.247Z,1023.01
2022-10-06T09:25:21.212Z,1023.01
2022-10-06T09:26:21.202Z,1022.98
2022-10-06T09:27:21.196Z,1022.97
2022-10-06T09:28:21.269Z,1023.01
2022-10-06T09:29:21.192Z,1023.03
2022-10-06T09:30:21.188Z,1023.07
2022-10-06T09:31:21.303Z,1022.96
2022-10-06T09:32:21.176Z,1023.02
2022-10-06T09:33:21.175Z,1023.10
2022-10-06T09:34:21.168Z,1023.11
2022-10-06T09:35:21.166Z,1023.08
2022-10-06T09:36:21.155Z,1023.00
2022-10-06T09:37:21.153Z,1022.51
2022-10-06T09:38:21.147Z,1022.60
2022-10-06T09:39:21.145Z,1023.14
2022-10-06T09:40:21.161Z,1023.14
2022-10-06T09:41:21.144Z,1023.17
2022-10-06T09:42:21.131Z,1023.02
2022-10-06T09:43:21.125Z,1022.90
2022-10-06T09:44:21.116Z,1022.68
2022-10-06T09:45:21.110Z,1022.67
2022-10-06T09:46:21.119Z,1022.64
2022-10-06T09:47:21.103Z,1022.64
2022-10-06T09:48:23.893Z,1022.57
2022-10-06T09:49:21.090Z,1022.56
2022-10-06T09:50:21.082Z,1022.53
2022-10-06T09:51:21.075Z,1022.51
2022-10-06T09:52:21.075Z,1022.57
2022-10-06T09:53:21.066Z,1022.58
2022-10-06T09:54:21.055Z,1022.58
2022-10-06T09:55:21.056Z,1022.61
2022-10-06T09:56:21.077Z,1022.65
2022-10-06T09:57:21.043Z,1022.60
2022-10-06T09:58:21.037Z,1022.51
2022-10-06T09:59:21.027Z,1022.59
2022-10-06T10:00:21.021Z,1022.61
2022-10-06T10:01:21.046Z,1022.53
2022-10-06T10:02:21.010Z,1022.66
2022-10-06T10:03:21.084Z,1022.62
2022-10-06T10:04:21.741Z,1022.69
2022-10-06T10:05:20.988Z,1022.70
2022-10-06T10:06:20.988Z,1022.69
2022-10-06T10:07:20.975Z,1022.71
2022-10-06T10:08:21.006Z,1022.71
2022-10-06T10:09:22.033Z,1022.78
2022-10-06T10:10:20.953Z,1022.82
2022-10-06T10:11:20.996Z,1022.68
2022-10-06T10:12:20.959Z,1022.82
2022-10-06T10:13:20.937Z,1022.83
2022-10-06T10:14:20.927Z,1022.77
2022-10-06T10:15:20.920Z,1022.73
2022-10-06T10:16:20.996Z,1022.66
2022-10-06T10:17:20.903Z,1022.89
2022-10-06T10:18:20.900Z,1022.79
2022-10-06T10:19:20.894Z,1022.79
2022-10-06T10:20:20.881Z,1022.81
2022-10-06T10:21:20.876Z,1022.78
2022-10-06T10:22:20.867Z,1022.80
2022-10-06T10:23:20.856Z,1022.87
2022-10-06T10:24:20.851Z,1022.87
2022-10-06T10:25:20.844Z,1022.89
2022-10-06T10:26:20.835Z,1022.86
2022-10-06T10:27:20.826Z,1022.82
2022-10-06T10:28:20.861Z,1022.84
2022-10-06T10:29:20.811Z,1022.96
2022-10-06T10:30:20.804Z,1022.96
2022-10-06T10:31:20.825Z,1022.92
2022-10-06T10:32:20.785Z,1022.88
2022-10-06T10:34:24.276Z,1022.89
2022-10-06T10:35:20.762Z,1022.92
2022-10-06T10:36:20.765Z,1022.93
2022-10-06T10:37:20.746Z,1022.94
2022-10-06T10:38:20.744Z,1022.90
2022-10-06T10:39:20.721Z,1022.88
2022-10-06T10:40:20.719Z,1022.86
2022-10-06T10:41:20.705Z,1022.87
2022-10-06T10:42:20.701Z,1022.87
2022-10-06T10:43:20.689Z,1022.98
2022-10-06T10:44:20.720Z,1022.95
2022-10-06T10:45:20.670Z,1022.98
2022-10-06T10:46:20.728Z,1023.00
2022-10-06T10:47:20.654Z,1022.94
2022-10-06T10:48:20.644Z,1022.94
2022-10-06T10:49:20.637Z,1022.93
2022-10-06T10:50:20.628Z,1022.95
2022-10-06T10:51:20.625Z,1022.97
2022-10-06T10:52:20.611Z,1022.94
2022-10-06T10:53:20.621Z,1022.96
2022-10-06T10:54:20.594Z,1023.00
2022-10-06T10:55:20.585Z,1022.95
2022-10-06T10:56:20.573Z,1022.97
2022-10-06T10:57:20.571Z,1022.98
2022-10-06T10:58:20.563Z,1022.98
2022-10-06T10:59:20.554Z,1022.92
2022-10-06T11:00:20.580Z,1022.94
2022-10-06T11:01:20.590Z,1022.87
2022-10-06T11:02:20.698Z,1022.80
2022-10-06T11:03:20.512Z,1022.96
2022-10-06T11:04:20.504Z,1022.99
2022-10-06T11:05:21.563Z,1022.84
2022-10-06T11:06:20.486Z,1022.90
2022-10-06T11:07:20.479Z,1022.99
2022-10-06T11:08:20.469Z,1022.93
2022-10-06T11:09:20.460Z,1023.00
2022-10-06T11:10:20.457Z,1022.99
2022-10-06T11:11:20.444Z,1023.02
2022-10-06T11:12:20.428Z,1023.00
2022-10-06T11:13:20.428Z,1022.92
2022-10-06T11:14:20.412Z,1023.00
2022-10-06T11:15:20.403Z,1023.01
2022-10-06T11:16:20.435Z,1022.97
2022-10-06T11:17:20.382Z,1022.94
2022-10-06T11:18:21.603Z,1022.98
2022-10-06T11:19:20.368Z,1022.95
2022-10-06T11:20:20.353Z,1022.92
2022-10-06T11:21:20.347Z,1023.04
2022-10-06T11:22:20.334Z,1022.96
2022-10-06T11:23:20.326Z,1022.95
2022-10-06T11:24:20.314Z,1023.04
2022-10-06T11:25:20.307Z,1023.09
2022-10-06T11:26:20.300Z,1023.02
2022-10-06T11:27:20.285Z,1022.96
2022-10-06T11:28:20.355Z,1022.91
2022-10-06T11:29:20.268Z,1022.96
2022-10-06T11:30:20.253Z,1023.02
2022-10-06T11:31:22.718Z,1022.96
2022-10-06T11:32:20.250Z,1023.00
2022-10-06T11:33:20.223Z,1023.01
2022-10-06T11:34:20.212Z,1023.02
2022-10-06T11:35:20.204Z,1022.96
2022-10-06T11:36:20.194Z,1023.00
2022-10-06T11:37:20.182Z,1023.04
2022-10-06T11:38:20.174Z,1022.95
2022-10-06T11:39:20.179Z,1023.00
2022-10-06T11:40:20.148Z,1022.98
2022-10-06T11:41:20.143Z,1022.92
2022-10-06T11:42:20.178Z,1023.04
2022-10-06T11:43:20.119Z,1023.04
2022-10-06T11:44:20.109Z,1023.07
2022-10-06T11:45:20.098Z,1023.07
2022-10-06T11:46:20.200Z,1023.00
2022-10-06T11:47:28.168Z,1023.07
2022-10-06T11:48:20.090Z,1023.01
2022-10-06T11:49:20.056Z,1022.87
2022-10-06T11:50:20.047Z,1022.89
2022-10-06T11:51:20.038Z,1022.99
2022-10-06T11:52:20.024Z,1022.95
2022-10-06T11:53:20.027Z,1022.92
2022-10-06T11:54:20.012Z,1022.86
2022-10-06T11:55:20.008Z,1022.92
2022-10-06T11:56:19.983Z,1022.94
2022-10-06T11:57:19.984Z,1022.90
2022-10-06T11:59:19.955Z,1022.92
2022-10-06T12:00:19.943Z,1022.90
2022-10-06T12:01:19.930Z,1022.91
2022-10-06T12:02:20.022Z,1022.86
2022-10-06T12:03:19.980Z,1022.89
2022-10-06T12:04:24.294Z,1022.83
2022-10-06T12:06:19.882Z,1022.79
2022-10-06T12:07:19.871Z,1022.87
2022-10-06T12:08:19.859Z,1022.81